sensor_id;sensor_type;location;lat;lon;timestamp;P1;durP1;ratioP1;P2;durP2;ratioP2
67100;SDS011;54019;61.746;16.106;2022-11-15T00:01:40;0.38;;;0.30;;
67100;SDS011;54019;61.746;16.106;2022-11-15T00:04:06;0.85;;;0.40;;
67100;SDS011;54019;61.746;16.106;2022-11-15T00:06:32;1.55;;;0.32;;
67100;SDS011;54019;61.746;16.106;2022-11-15T00:08:58;1.25;;;0.20;;
67100;SDS011;54019;61.746;16.106;2022-11-15T00:11:26;0.20;;;0.20;;
67100;SDS011;54019;61.746;16.106;2022-11-15T00:13:54;0.73;;;0.22;;
67100;SDS011;54019;61.746;16.106;2022-11-15T00:16:20;0.30;;;0.30;;
67100;SDS011;54019;61.746;16.106;2022-11-15T00:18:46;0.75;;;0.20;;
67100;SDS011;54019;61.746;16.106;2022-11-15T00:21:12;2.42;;;0.28;;
67100;SDS011;54019;61.746;16.106;2022-11-15T00:23:39;2.05;;;0.22;;
67100;SDS011;54019;61.746;16.106;2022-11-15T00:26:05;0.20;;;0.20;;
67100;SDS011;54019;61.746;16.106;2022-11-15T00:28:32;0.20;;;0.20;;
67100;SDS011;54019;61.746;16.106;2022-11-15T00:31:01;0.20;;;0.20;;
67100;SDS011;54019;61.746;16.106;2022-11-15T00:33:28;0.85;;;0.20;;
67100;SDS011;54019;61.746;16.106;2022-11-15T00:35:58;0.40;;;0.30;;
67100;SDS011;54019;61.746;16.106;2022-11-15T00:38:25;0.40;;;0.30;;
67100;SDS011;54019;61.746;16.106;2022-11-15T00:40:54;0.20;;;0.20;;
67100;SDS011;54019;61.746;16.106;2022-11-15T00:43:20;0.30;;;0.20;;
67100;SDS011;54019;61.746;16.106;2022-11-15T00:45:47;0.20;;;0.20;;
67100;SDS011;54019;61.746;16.106;2022-11-15T00:48:13;0.20;;;0.20;;
67100;SDS011;54019;61.746;16.106;2022-11-15T00:50:39;0.45;;;0.20;;
67100;SDS011;54019;61.746;16.106;2022-11-15T00:53:05;0.28;;;0.20;;
67100;SDS011;54019;61.746;16.106;2022-11-15T00:55:31;0.17;;;0.17;;
67100;SDS011;54019;61.746;16.106;2022-11-15T00:57:57;0.32;;;0.10;;
67100;SDS011;54019;61.746;16.106;2022-11-15T01:00:22;0.20;;;0.10;;
67100;SDS011;54019;61.746;16.106;2022-11-15T01:02:50;0.40;;;0.20;;
67100;SDS011;54019;61.746;16.106;2022-11-15T01:05:15;0.35;;;0.10;;
67100;SDS011;54019;61.746;16.106;2022-11-15T01:07:41;0.45;;;0.13;;
67100;SDS011;54019;61.746;16.106;2022-11-15T01:10:07;0.22;;;0.20;;
67100;SDS011;54019;61.746;16.106;2022-11-15T01:12:34;0.32;;;0.22;;
67100;SDS011;54019;61.746;16.106;2022-11-15T01:15:01;0.10;;;0.10;;
67100;SDS011;54019;61.746;16.106;2022-11-15T01:17:27;0.10;;;0.10;;
67100;SDS011;54019;61.746;16.106;2022-11-15T01:19:54;0.30;;;0.20;;
67100;SDS011;54019;61.746;16.106;2022-11-15T01:22:20;0.68;;;0.20;;
67100;SDS011;54019;61.746;16.106;2022-11-15T01:24:45;0.20;;;0.20;;
67100;SDS011;54019;61.746;16.106;2022-11-15T01:27:11;0.10;;;0.10;;
67100;SDS011;54019;61.746;16.106;2022-11-15T01:29:37;0.13;;;0.13;;
67100;SDS011;54019;61.746;16.106;2022-11-15T01:32:03;0.03;;;0.03;;
67100;SDS011;54019;61.746;16.106;2022-11-15T01:34:29;0.20;;;0.20;;
67100;SDS011;54019;61.746;16.106;2022-11-15T01:36:56;0.20;;;0.20;;
67100;SDS011;54019;61.746;16.106;2022-11-15T01:39:22;0.10;;;0.10;;
67100;SDS011;54019;61.746;16.106;2022-11-15T01:41:48;0.85;;;0.10;;
67100;SDS011;54019;61.746;16.106;2022-11-15T01:44:34;0.20;;;0.20;;
67100;SDS011;54019;61.746;16.106;2022-11-15T01:47:12;0.20;;;0.20;;
67100;SDS011;54019;61.746;16.106;2022-11-15T01:49:41;0.10;;;0.10;;
67100;SDS011;54019;61.746;16.106;2022-11-15T01:52:17;0.80;;;0.10;;
67100;SDS011;54019;61.746;16.106;2022-11-15T01:54:45;0.32;;;0.17;;
67100;SDS011;54019;61.746;16.106;2022-11-15T01:57:12;0.20;;;0.10;;
67100;SDS011;54019;61.746;16.106;2022-11-15T01:59:39;0.38;;;0.13;;
67100;SDS011;54019;61.746;16.106;2022-11-15T02:02:08;0.38;;;0.20;;
67100;SDS011;54019;61.746;16.106;2022-11-15T02:04:35;0.10;;;0.10;;
67100;SDS011;54019;61.746;16.106;2022-11-15T02:07:04;0.40;;;0.20;;
67100;SDS011;54019;61.746;16.106;2022-11-15T02:09:34;0.10;;;0.10;;
67100;SDS011;54019;61.746;16.106;2022-11-15T02:12:01;0.20;;;0.10;;
67100;SDS011;54019;61.746;16.106;2022-11-15T02:14:27;0.85;;;0.10;;
67100;SDS011;54019;61.746;16.106;2022-11-15T02:16:56;0.30;;;0.20;;
67100;SDS011;54019;61.746;16.106;2022-11-15T02:19:37;0.10;;;0.10;;
67100;SDS011;54019;61.746;16.106;2022-11-15T02:22:20;0.10;;;0.10;;
67100;SDS011;54019;61.746;16.106;2022-11-15T02:25:02;0.30;;;0.30;;
67100;SDS011;54019;61.746;16.106;2022-11-15T02:30:46;0.10;;;0.10;;
67100;SDS011;54019;61.746;16.106;2022-11-15T02:33:17;0.52;;;0.10;;
67100;SDS011;54019;61.746;16.106;2022-11-15T02:35:52;0.17;;;0.17;;
67100;SDS011;54019;61.746;16.106;2022-11-15T02:38:25;0.17;;;0.10;;
67100;SDS011;54019;61.746;16.106;2022-11-15T02:41:00;0.30;;;0.20;;
67100;SDS011;54019;61.746;16.106;2022-11-15T02:43:31;0.20;;;0.10;;
67100;SDS011;54019;61.746;16.106;2022-11-15T02:46:03;0.20;;;0.20;;
67100;SDS011;54019;61.746;16.106;2022-11-15T02:48:35;0.10;;;0.10;;
67100;SDS011;54019;61.746;16.106;2022-11-15T02:51:01;0.10;;;0.10;;
67100;SDS011;54019;61.746;16.106;2022-11-15T02:53:28;1.23;;;0.20;;
67100;SDS011;54019;61.746;16.106;2022-11-15T02:55:54;0.10;;;0.10;;
67100;SDS011;54019;61.746;16.106;2022-11-15T02:58:35;0.10;;;0.10;;
67100;SDS011;54019;61.746;16.106;2022-11-15T03:01:36;0.30;;;0.25;;
67100;SDS011;54019;61.746;16.106;2022-11-15T03:04:15;0.10;;;0.10;;
67100;SDS011;54019;61.746;16.106;2022-11-15T03:06:48;0.10;;;0.10;;
67100;SDS011;54019;61.746;16.106;2022-11-15T03:09:20;0.20;;;0.10;;
67100;SDS011;54019;61.746;16.106;2022-11-15T03:11:54;0.10;;;0.10;;
67100;SDS011;54019;61.746;16.106;2022-11-15T03:14:25;0.10;;;0.10;;
67100;SDS011;54019;61.746;16.106;2022-11-15T03:17:01;0.10;;;0.10;;
67100;SDS011;54019;61.746;16.106;2022-11-15T03:19:31;0.10;;;0.10;;
67100;SDS011;54019;61.746;16.106;2022-11-15T03:22:04;0.10;;;0.10;;
67100;SDS011;54019;61.746;16.106;2022-11-15T03:24:34;0.10;;;0.10;;
67100;SDS011;54019;61.746;16.106;2022-11-15T03:27:03;0.35;;;0.10;;
67100;SDS011;54019;61.746;16.106;2022-11-15T03:29:32;0.10;;;0.10;;
67100;SDS011;54019;61.746;16.106;2022-11-15T03:32:02;0.10;;;0.10;;
67100;SDS011;54019;61.746;16.106;2022-11-15T03:34:32;0.40;;;0.15;;
67100;SDS011;54019;61.746;16.106;2022-11-15T03:37:01;0.20;;;0.20;;
67100;SDS011;54019;61.746;16.106;2022-11-15T03:39:27;0.10;;;0.10;;
67100;SDS011;54019;61.746;16.106;2022-11-15T03:41:56;0.35;;;0.10;;
67100;SDS011;54019;61.746;16.106;2022-11-15T03:44:40;0.10;;;0.10;;
67100;SDS011;54019;61.746;16.106;2022-11-15T03:47:13;0.10;;;0.10;;
67100;SDS011;54019;61.746;16.106;2022-11-15T03:49:44;0.10;;;0.10;;
67100;SDS011;54019;61.746;16.106;2022-11-15T03:52:15;0.10;;;0.10;;
67100;SDS011;54019;61.746;16.106;2022-11-15T03:54:47;0.70;;;0.10;;
67100;SDS011;54019;61.746;16.106;2022-11-15T03:57:14;1.23;;;0.10;;
67100;SDS011;54019;61.746;16.106;2022-11-15T03:59:43;0.28;;;0.10;;
67100;SDS011;54019;61.746;16.106;2022-11-15T04:02:09;1.17;;;0.00;;
67100;SDS011;54019;61.746;16.106;2022-11-15T04:04:36;0.10;;;0.00;;
67100;SDS011;54019;61.746;16.106;2022-11-15T04:07:02;0.35;;;0.10;;
67100;SDS011;54019;61.746;16.106;2022-11-15T04:09:28;0.15;;;0.10;;
67100;SDS011;54019;61.746;16.106;2022-11-15T04:11:53;0.20;;;0.10;;
67100;SDS011;54019;61.746;16.106;2022-11-15T04:14:19;0.63;;;0.17;;
67100;SDS011;54019;61.746;16.106;2022-11-15T04:16:45;1.77;;;0.15;;
67100;SDS011;54019;61.746;16.106;2022-11-15T04:19:11;0.43;;;0.10;;
67100;SDS011;54019;61.746;16.106;2022-11-15T04:21:38;0.38;;;0.10;;
67100;SDS011;54019;61.746;16.106;2022-11-15T04:24:04;0.75;;;0.10;;
67100;SDS011;54019;61.746;16.106;2022-11-15T04:26:30;0.60;;;0.30;;
67100;SDS011;54019;61.746;16.106;2022-11-15T04:28:56;0.65;;;0.10;;
67100;SDS011;54019;61.746;16.106;2022-11-15T04:31:22;1.48;;;0.17;;
67100;SDS011;54019;61.746;16.106;2022-11-15T04:33:48;0.10;;;0.10;;
67100;SDS011;54019;61.746;16.106;2022-11-15T04:36:13;0.55;;;0.10;;
67100;SDS011;54019;61.746;16.106;2022-11-15T04:38:41;0.20;;;0.10;;
67100;SDS011;54019;61.746;16.106;2022-11-15T04:41:06;1.30;;;0.10;;
67100;SDS011;54019;61.746;16.106;2022-11-15T04:43:32;2.42;;;0.50;;
67100;SDS011;54019;61.746;16.106;2022-11-15T04:45:58;1.60;;;0.10;;
67100;SDS011;54019;61.746;16.106;2022-11-15T04:48:24;1.88;;;0.15;;
67100;SDS011;54019;61.746;16.106;2022-11-15T04:50:49;0.10;;;0.10;;
67100;SDS011;54019;61.746;16.106;2022-11-15T04:53:15;0.55;;;0.10;;
67100;SDS011;54019;61.746;16.106;2022-11-15T04:55:45;0.10;;;0.10;;
67100;SDS011;54019;61.746;16.106;2022-11-15T04:58:11;0.47;;;0.20;;
67100;SDS011;54019;61.746;16.106;2022-11-15T05:00:36;0.10;;;0.10;;
67100;SDS011;54019;61.746;16.106;2022-11-15T05:03:02;0.22;;;0.10;;
67100;SDS011;54019;61.746;16.106;2022-11-15T05:05:29;0.10;;;0.10;;
67100;SDS011;54019;61.746;16.106;2022-11-15T05:07:55;0.45;;;0.10;;
67100;SDS011;54019;61.746;16.106;2022-11-15T05:10:21;0.10;;;0.10;;
67100;SDS011;54019;61.746;16.106;2022-11-15T05:12:48;2.50;;;0.10;;
67100;SDS011;54019;61.746;16.106;2022-11-15T05:15:14;0.65;;;0.10;;
67100;SDS011;54019;61.746;16.106;2022-11-15T05:17:40;0.88;;;0.10;;
67100;SDS011;54019;61.746;16.106;2022-11-15T05:20:06;0.10;;;0.10;;
67100;SDS011;54019;61.746;16.106;2022-11-15T05:22:32;0.13;;;0.10;;
67100;SDS011;54019;61.746;16.106;2022-11-15T05:24:58;0.45;;;0.17;;
67100;SDS011;54019;61.746;16.106;2022-11-15T05:27:24;0.10;;;0.10;;
67100;SDS011;54019;61.746;16.106;2022-11-15T05:29:51;0.40;;;0.00;;
67100;SDS011;54019;61.746;16.106;2022-11-15T05:32:17;0.22;;;0.10;;
67100;SDS011;54019;61.746;16.106;2022-11-15T05:34:43;0.45;;;0.17;;
67100;SDS011;54019;61.746;16.106;2022-11-15T05:37:09;0.57;;;0.10;;
67100;SDS011;54019;61.746;16.106;2022-11-15T05:39:35;0.20;;;0.20;;
67100;SDS011;54019;61.746;16.106;2022-11-15T05:42:02;0.10;;;0.10;;
67100;SDS011;54019;61.746;16.106;2022-11-15T05:44:32;0.00;;;0.00;;
67100;SDS011;54019;61.746;16.106;2022-11-15T05:47:01;0.00;;;0.00;;
67100;SDS011;54019;61.746;16.106;2022-11-15T05:49:29;0.10;;;0.10;;
67100;SDS011;54019;61.746;16.106;2022-11-15T05:51:59;0.08;;;0.08;;
67100;SDS011;54019;61.746;16.106;2022-11-15T05:54:28;0.32;;;0.10;;
67100;SDS011;54019;61.746;16.106;2022-11-15T05:56:55;1.40;;;0.20;;
67100;SDS011;54019;61.746;16.106;2022-11-15T05:59:21;5.07;;;0.20;;
67100;SDS011;54019;61.746;16.106;2022-11-15T06:01:46;9.43;;;0.45;;
67100;SDS011;54019;61.746;16.106;2022-11-15T06:04:14;3.80;;;0.30;;
67100;SDS011;54019;61.746;16.106;2022-11-15T06:06:39;6.90;;;0.40;;
67100;SDS011;54019;61.746;16.106;2022-11-15T06:09:05;4.45;;;0.10;;
67100;SDS011;54019;61.746;16.106;2022-11-15T06:11:31;1.45;;;0.20;;
67100;SDS011;54019;61.746;16.106;2022-11-15T06:13:57;3.65;;;0.20;;
67100;SDS011;54019;61.746;16.106;2022-11-15T06:16:23;3.15;;;0.30;;
67100;SDS011;54019;61.746;16.106;2022-11-15T06:18:48;5.40;;;0.30;;
67100;SDS011;54019;61.746;16.106;2022-11-15T06:21:15;6.95;;;0.40;;
67100;SDS011;54019;61.746;16.106;2022-11-15T06:23:41;3.35;;;0.30;;
67100;SDS011;54019;61.746;16.106;2022-11-15T06:26:07;5.75;;;0.40;;
67100;SDS011;54019;61.746;16.106;2022-11-15T06:28:33;5.03;;;0.43;;
67100;SDS011;54019;61.746;16.106;2022-11-15T06:31:01;2.72;;;0.30;;
67100;SDS011;54019;61.746;16.106;2022-11-15T06:33:28;3.00;;;0.43;;
67100;SDS011;54019;61.746;16.106;2022-11-15T06:35:53;0.63;;;0.38;;
67100;SDS011;54019;61.746;16.106;2022-11-15T06:38:20;2.28;;;0.30;;
67100;SDS011;54019;61.746;16.106;2022-11-15T06:40:46;0.60;;;0.20;;
67100;SDS011;54019;61.746;16.106;2022-11-15T06:43:12;14.75;;;3.92;;
67100;SDS011;54019;61.746;16.106;2022-11-15T06:45:38;19.25;;;5.97;;
67100;SDS011;54019;61.746;16.106;2022-11-15T06:48:04;9.85;;;3.42;;
67100;SDS011;54019;61.746;16.106;2022-11-15T06:50:30;10.52;;;3.28;;
67100;SDS011;54019;61.746;16.106;2022-11-15T06:53:00;9.18;;;2.40;;
67100;SDS011;54019;61.746;16.106;2022-11-15T06:55:28;7.45;;;2.20;;
67100;SDS011;54019;61.746;16.106;2022-11-15T06:57:54;9.95;;;2.08;;
67100;SDS011;54019;61.746;16.106;2022-11-15T07:00:20;8.15;;;1.75;;
67100;SDS011;54019;61.746;16.106;2022-11-15T07:02:47;7.95;;;1.63;;
67100;SDS011;54019;61.746;16.106;2022-11-15T07:05:13;4.35;;;1.52;;
67100;SDS011;54019;61.746;16.106;2022-11-15T07:07:39;5.10;;;1.55;;
67100;SDS011;54019;61.746;16.106;2022-11-15T07:10:06;4.72;;;1.45;;
67100;SDS011;54019;61.746;16.106;2022-11-15T07:12:34;5.43;;;1.35;;
67100;SDS011;54019;61.746;16.106;2022-11-15T07:15:00;5.38;;;1.20;;
67100;SDS011;54019;61.746;16.106;2022-11-15T07:17:26;3.75;;;1.17;;
67100;SDS011;54019;61.746;16.106;2022-11-15T07:19:51;5.30;;;1.38;;
67100;SDS011;54019;61.746;16.106;2022-11-15T07:22:17;7.88;;;1.00;;
67100;SDS011;54019;61.746;16.106;2022-11-15T07:24:43;5.15;;;1.20;;
67100;SDS011;54019;61.746;16.106;2022-11-15T07:27:09;2.95;;;1.08;;
67100;SDS011;54019;61.746;16.106;2022-11-15T07:29:36;2.00;;;0.98;;
67100;SDS011;54019;61.746;16.106;2022-11-15T07:32:02;2.78;;;0.70;;
67100;SDS011;54019;61.746;16.106;2022-11-15T07:34:28;4.20;;;1.00;;
67100;SDS011;54019;61.746;16.106;2022-11-15T07:36:53;3.38;;;0.70;;
67100;SDS011;54019;61.746;16.106;2022-11-15T07:39:19;2.42;;;0.60;;
67100;SDS011;54019;61.746;16.106;2022-11-15T07:41:45;1.67;;;0.60;;
67100;SDS011;54019;61.746;16.106;2022-11-15T07:44:11;3.40;;;0.70;;
67100;SDS011;54019;61.746;16.106;2022-11-15T07:46:38;1.88;;;1.00;;
67100;SDS011;54019;61.746;16.106;2022-11-15T07:49:04;1.70;;;0.70;;
67100;SDS011;54019;61.746;16.106;2022-11-15T07:51:30;1.98;;;0.73;;
67100;SDS011;54019;61.746;16.106;2022-11-15T07:53:56;5.45;;;0.70;;
67100;SDS011;54019;61.746;16.106;2022-11-15T07:56:21;1.60;;;0.50;;
67100;SDS011;54019;61.746;16.106;2022-11-15T07:58:47;2.08;;;0.60;;
67100;SDS011;54019;61.746;16.106;2022-11-15T08:01:13;1.40;;;0.60;;
67100;SDS011;54019;61.746;16.106;2022-11-15T08:03:40;1.05;;;0.50;;
67100;SDS011;54019;61.746;16.106;2022-11-15T08:06:06;2.50;;;0.60;;
67100;SDS011;54019;61.746;16.106;2022-11-15T08:08:32;1.83;;;0.60;;
67100;SDS011;54019;61.746;16.106;2022-11-15T08:10:58;1.63;;;0.60;;
67100;SDS011;54019;61.746;16.106;2022-11-15T08:13:24;14.05;;;1.40;;
67100;SDS011;54019;61.746;16.106;2022-11-15T08:15:50;4.88;;;0.95;;
67100;SDS011;54019;61.746;16.106;2022-11-15T08:18:16;7.07;;;1.48;;
67100;SDS011;54019;61.746;16.106;2022-11-15T08:20:43;2.53;;;1.10;;
67100;SDS011;54019;61.746;16.106;2022-11-15T08:23:09;3.90;;;1.00;;
67100;SDS011;54019;61.746;16.106;2022-11-15T08:25:36;5.90;;;1.00;;
67100;SDS011;54019;61.746;16.106;2022-11-15T08:28:03;2.65;;;0.80;;
67100;SDS011;54019;61.746;16.106;2022-11-15T08:30:34;3.10;;;0.93;;
67100;SDS011;54019;61.746;16.106;2022-11-15T08:33:01;3.08;;;0.80;;
67100;SDS011;54019;61.746;16.106;2022-11-15T08:35:27;1.63;;;0.88;;
67100;SDS011;54019;61.746;16.106;2022-11-15T08:37:55;2.45;;;0.60;;
67100;SDS011;54019;61.746;16.106;2022-11-15T08:40:20;2.22;;;0.60;;
67100;SDS011;54019;61.746;16.106;2022-11-15T08:42:46;2.17;;;0.80;;
67100;SDS011;54019;61.746;16.106;2022-11-15T08:45:13;1.83;;;0.50;;
67100;SDS011;54019;61.746;16.106;2022-11-15T08:47:39;3.90;;;0.50;;
67100;SDS011;54019;61.746;16.106;2022-11-15T08:50:05;3.00;;;0.47;;
67100;SDS011;54019;61.746;16.106;2022-11-15T08:52:32;1.77;;;0.60;;
67100;SDS011;54019;61.746;16.106;2022-11-15T08:54:59;1.58;;;0.50;;
67100;SDS011;54019;61.746;16.106;2022-11-15T08:57:27;1.50;;;0.40;;
67100;SDS011;54019;61.746;16.106;2022-11-15T08:59:53;0.85;;;0.40;;
67100;SDS011;54019;61.746;16.106;2022-11-15T09:02:19;1.75;;;0.20;;
67100;SDS011;54019;61.746;16.106;2022-11-15T09:04:45;1.95;;;0.50;;
67100;SDS011;54019;61.746;16.106;2022-11-15T09:07:11;2.05;;;0.50;;
67100;SDS011;54019;61.746;16.106;2022-11-15T09:09:38;4.78;;;0.50;;
67100;SDS011;54019;61.746;16.106;2022-11-15T09:12:05;5.15;;;0.65;;
67100;SDS011;54019;61.746;16.106;2022-11-15T09:14:32;1.02;;;0.40;;
67100;SDS011;54019;61.746;16.106;2022-11-15T09:16:58;3.53;;;0.43;;
67100;SDS011;54019;61.746;16.106;2022-11-15T09:19:24;0.82;;;0.30;;
67100;SDS011;54019;61.746;16.106;2022-11-15T09:21:50;1.17;;;0.40;;
67100;SDS011;54019;61.746;16.106;2022-11-15T09:24:17;0.82;;;0.40;;
67100;SDS011;54019;61.746;16.106;2022-11-15T09:26:43;0.98;;;0.30;;
67100;SDS011;54019;61.746;16.106;2022-11-15T09:29:10;1.13;;;0.30;;
67100;SDS011;54019;61.746;16.106;2022-11-15T09:31:36;5.07;;;2.95;;
67100;SDS011;54019;61.746;16.106;2022-11-15T09:34:02;3.60;;;2.67;;
67100;SDS011;54019;61.746;16.106;2022-11-15T09:36:28;5.28;;;2.80;;
67100;SDS011;54019;61.746;16.106;2022-11-15T09:38:53;4.03;;;2.78;;
67100;SDS011;54019;61.746;16.106;2022-11-15T09:44:18;5.60;;;3.10;;
67100;SDS011;54019;61.746;16.106;2022-11-15T09:47:03;4.13;;;2.63;;
67100;SDS011;54019;61.746;16.106;2022-11-15T09:49:42;7.65;;;2.53;;
67100;SDS011;54019;61.746;16.106;2022-11-15T09:52:08;6.38;;;2.63;;
67100;SDS011;54019;61.746;16.106;2022-11-15T09:54:36;3.00;;;2.30;;
67100;SDS011;54019;61.746;16.106;2022-11-15T09:57:04;3.45;;;2.30;;
67100;SDS011;54019;61.746;16.106;2022-11-15T09:59:48;5.47;;;2.58;;
67100;SDS011;54019;61.746;16.106;2022-11-15T10:02:24;2.88;;;2.00;;
67100;SDS011;54019;61.746;16.106;2022-11-15T10:05:07;2.80;;;1.95;;
67100;SDS011;54019;61.746;16.106;2022-11-15T10:07:37;5.88;;;2.15;;
67100;SDS011;54019;61.746;16.106;2022-11-15T10:10:14;3.58;;;2.40;;
67100;SDS011;54019;61.746;16.106;2022-11-15T10:12:44;2.45;;;1.77;;
67100;SDS011;54019;61.746;16.106;2022-11-15T10:15:15;3.00;;;2.03;;
67100;SDS011;54019;61.746;16.106;2022-11-15T10:17:51;3.03;;;1.90;;
67100;SDS011;54019;61.746;16.106;2022-11-15T10:20:32;3.50;;;1.67;;
67100;SDS011;54019;61.746;16.106;2022-11-15T10:23:05;4.50;;;1.83;;
67100;SDS011;54019;61.746;16.106;2022-11-15T10:25:35;2.30;;;1.60;;
67100;SDS011;54019;61.746;16.106;2022-11-15T10:28:03;3.40;;;1.63;;
67100;SDS011;54019;61.746;16.106;2022-11-15T10:30:37;1.73;;;1.42;;
67100;SDS011;54019;61.746;16.106;2022-11-15T10:33:12;2.13;;;1.52;;
67100;SDS011;54019;61.746;16.106;2022-11-15T10:35:44;3.17;;;1.48;;
67100;SDS011;54019;61.746;16.106;2022-11-15T10:38:11;2.15;;;1.20;;
67100;SDS011;54019;61.746;16.106;2022-11-15T10:40:38;1.73;;;1.30;;
67100;SDS011;54019;61.746;16.106;2022-11-15T10:43:06;1.90;;;1.20;;
67100;SDS011;54019;61.746;16.106;2022-11-15T10:45:40;1.75;;;1.38;;
67100;SDS011;54019;61.746;16.106;2022-11-15T10:48:23;3.13;;;1.38;;
67100;SDS011;54019;61.746;16.106;2022-11-15T10:50:49;2.20;;;1.20;;
67100;SDS011;54019;61.746;16.106;2022-11-15T10:53:17;2.92;;;1.10;;
67100;SDS011;54019;61.746;16.106;2022-11-15T10:55:52;1.63;;;1.30;;
67100;SDS011;54019;61.746;16.106;2022-11-15T10:58:21;1.15;;;0.95;;
67100;SDS011;54019;61.746;16.106;2022-11-15T11:00:56;2.10;;;1.10;;
67100;SDS011;54019;61.746;16.106;2022-11-15T11:03:35;2.00;;;1.23;;
67100;SDS011;54019;61.746;16.106;2022-11-15T11:06:03;1.23;;;0.88;;
67100;SDS011;54019;61.746;16.106;2022-11-15T11:08:32;2.30;;;0.80;;
67100;SDS011;54019;61.746;16.106;2022-11-15T11:10:58;2.70;;;1.15;;
67100;SDS011;54019;61.746;16.106;2022-11-15T11:13:26;2.65;;;0.98;;
67100;SDS011;54019;61.746;16.106;2022-11-15T11:15:53;1.73;;;0.88;;
67100;SDS011;54019;61.746;16.106;2022-11-15T11:18:25;2.42;;;0.90;;
67100;SDS011;54019;61.746;16.106;2022-11-15T11:20:57;2.80;;;0.75;;
67100;SDS011;54019;61.746;16.106;2022-11-15T11:23:35;4.07;;;0.85;;
67100;SDS011;54019;61.746;16.106;2022-11-15T11:26:14;3.80;;;0.70;;
67100;SDS011;54019;61.746;16.106;2022-11-15T11:28:54;0.90;;;0.60;;
67100;SDS011;54019;61.746;16.106;2022-11-15T11:31:29;1.10;;;0.80;;
67100;SDS011;54019;61.746;16.106;2022-11-15T11:34:04;4.07;;;0.60;;
67100;SDS011;54019;61.746;16.106;2022-11-15T11:36:42;3.70;;;0.63;;
67100;SDS011;54019;61.746;16.106;2022-11-15T11:39:21;2.03;;;0.60;;
67100;SDS011;54019;61.746;16.106;2022-11-15T11:41:56;1.35;;;0.70;;
67100;SDS011;54019;61.746;16.106;2022-11-15T11:44:36;3.60;;;0.50;;
67100;SDS011;54019;61.746;16.106;2022-11-15T11:47:12;0.82;;;0.70;;
67100;SDS011;54019;61.746;16.106;2022-11-15T11:49:45;2.65;;;0.68;;
67100;SDS011;54019;61.746;16.106;2022-11-15T11:52:16;0.85;;;0.60;;
67100;SDS011;54019;61.746;16.106;2022-11-15T11:54:48;1.33;;;0.68;;
67100;SDS011;54019;61.746;16.106;2022-11-15T11:57:22;2.50;;;0.50;;
67100;SDS011;54019;61.746;16.106;2022-11-15T11:59:56;3.35;;;0.50;;
67100;SDS011;54019;61.746;16.106;2022-11-15T12:02:29;2.20;;;0.43;;
67100;SDS011;54019;61.746;16.106;2022-11-15T12:05:01;0.98;;;0.30;;
67100;SDS011;54019;61.746;16.106;2022-11-15T12:07:34;1.02;;;0.60;;
67100;SDS011;54019;61.746;16.106;2022-11-15T12:10:03;0.80;;;0.40;;
67100;SDS011;54019;61.746;16.106;2022-11-15T12:12:38;1.70;;;0.65;;
67100;SDS011;54019;61.746;16.106;2022-11-15T12:15:11;0.90;;;0.40;;
67100;SDS011;54019;61.746;16.106;2022-11-15T12:17:41;0.45;;;0.45;;
67100;SDS011;54019;61.746;16.106;2022-11-15T12:20:14;0.88;;;0.40;;
67100;SDS011;54019;61.746;16.106;2022-11-15T12:22:42;0.73;;;0.30;;
67100;SDS011;54019;61.746;16.106;2022-11-15T12:25:14;2.90;;;0.50;;
67100;SDS011;54019;61.746;16.106;2022-11-15T12:30:12;0.43;;;0.30;;
67100;SDS011;54019;61.746;16.106;2022-11-15T12:32:47;0.38;;;0.28;;
67100;SDS011;54019;61.746;16.106;2022-11-15T12:35:21;2.35;;;0.30;;
67100;SDS011;54019;61.746;16.106;2022-11-15T12:37:50;0.82;;;0.40;;
67100;SDS011;54019;61.746;16.106;2022-11-15T12:40:27;1.83;;;0.30;;
67100;SDS011;54019;61.746;16.106;2022-11-15T12:45:52;0.52;;;0.30;;
67100;SDS011;54019;61.746;16.106;2022-11-15T12:51:20;0.60;;;0.30;;
67100;SDS011;54019;61.746;16.106;2022-11-15T12:53:48;0.35;;;0.22;;
67100;SDS011;54019;61.746;16.106;2022-11-15T12:56:20;1.23;;;0.65;;
67100;SDS011;54019;61.746;16.106;2022-11-15T12:58:48;1.60;;;0.30;;
67100;SDS011;54019;61.746;16.106;2022-11-15T13:04:25;2.33;;;0.40;;
67100;SDS011;54019;61.746;16.106;2022-11-15T13:06:53;0.43;;;0.20;;
67100;SDS011;54019;61.746;16.106;2022-11-15T13:12:49;1.25;;;0.25;;
67100;SDS011;54019;61.746;16.106;2022-11-15T13:15:33;0.30;;;0.20;;
67100;SDS011;54019;61.746;16.106;2022-11-15T13:18:31;3.20;;;0.30;;
67100;SDS011;54019;61.746;16.106;2022-11-15T13:21:04;1.38;;;0.40;;
67100;SDS011;54019;61.746;16.106;2022-11-15T13:23:44;0.32;;;0.20;;
67100;SDS011;54019;61.746;16.106;2022-11-15T13:26:12;1.60;;;0.25;;
67100;SDS011;54019;61.746;16.106;2022-11-15T13:28:41;2.42;;;0.20;;
67100;SDS011;54019;61.746;16.106;2022-11-15T13:31:23;2.60;;;0.30;;
67100;SDS011;54019;61.746;16.106;2022-11-15T13:33:51;2.05;;;0.22;;
67100;SDS011;54019;61.746;16.106;2022-11-15T13:36:21;0.20;;;0.17;;
67100;SDS011;54019;61.746;16.106;2022-11-15T13:38:56;0.73;;;0.20;;
67100;SDS011;54019;61.746;16.106;2022-11-15T13:41:25;1.45;;;0.10;;
67100;SDS011;54019;61.746;16.106;2022-11-15T13:43:53;2.72;;;0.17;;
67100;SDS011;54019;61.746;16.106;2022-11-15T13:46:21;0.20;;;0.20;;
67100;SDS011;54019;61.746;16.106;2022-11-15T13:48:51;1.58;;;0.20;;
67100;SDS011;54019;61.746;16.106;2022-11-15T13:51:20;1.60;;;0.20;;
67100;SDS011;54019;61.746;16.106;2022-11-15T13:53:54;1.15;;;0.30;;
67100;SDS011;54019;61.746;16.106;2022-11-15T13:56:23;0.28;;;0.20;;
67100;SDS011;54019;61.746;16.106;2022-11-15T13:58:50;1.70;;;0.20;;
67100;SDS011;54019;61.746;16.106;2022-11-15T14:01:17;0.40;;;0.20;;
67100;SDS011;54019;61.746;16.106;2022-11-15T14:03:48;0.20;;;0.20;;
67100;SDS011;54019;61.746;16.106;2022-11-15T14:06:18;1.70;;;0.20;;
67100;SDS011;54019;61.746;16.106;2022-11-15T14:08:59;1.75;;;0.32;;
67100;SDS011;54019;61.746;16.106;2022-11-15T14:11:48;0.63;;;0.30;;
67100;SDS011;54019;61.746;16.106;2022-11-15T14:14:15;0.43;;;0.20;;
67100;SDS011;54019;61.746;16.106;2022-11-15T14:16:41;0.20;;;0.20;;
67100;SDS011;54019;61.746;16.106;2022-11-15T14:19:10;0.43;;;0.30;;
67100;SDS011;54019;61.746;16.106;2022-11-15T14:21:37;0.25;;;0.10;;
67100;SDS011;54019;61.746;16.106;2022-11-15T14:24:24;1.38;;;0.22;;
67100;SDS011;54019;61.746;16.106;2022-11-15T14:26:55;1.77;;;0.32;;
67100;SDS011;54019;61.746;16.106;2022-11-15T14:29:21;1.45;;;0.10;;
67100;SDS011;54019;61.746;16.106;2022-11-15T14:31:48;0.20;;;0.20;;
67100;SDS011;54019;61.746;16.106;2022-11-15T14:34:14;5.32;;;0.20;;
67100;SDS011;54019;61.746;16.106;2022-11-15T14:36:39;0.20;;;0.20;;
67100;SDS011;54019;61.746;16.106;2022-11-15T14:39:05;1.38;;;0.10;;
67100;SDS011;54019;61.746;16.106;2022-11-15T14:41:34;1.45;;;0.20;;
67100;SDS011;54019;61.746;16.106;2022-11-15T14:44:00;1.58;;;0.30;;
67100;SDS011;54019;61.746;16.106;2022-11-15T14:46:26;4.45;;;0.20;;
67100;SDS011;54019;61.746;16.106;2022-11-15T14:48:52;5.53;;;0.20;;
67100;SDS011;54019;61.746;16.106;2022-11-15T14:51:18;1.38;;;0.10;;
67100;SDS011;54019;61.746;16.106;2022-11-15T14:53:44;2.60;;;0.40;;
67100;SDS011;54019;61.746;16.106;2022-11-15T14:56:11;2.67;;;0.40;;
67100;SDS011;54019;61.746;16.106;2022-11-15T14:58:38;2.42;;;0.30;;
67100;SDS011;54019;61.746;16.106;2022-11-15T15:01:09;0.85;;;0.25;;
67100;SDS011;54019;61.746;16.106;2022-11-15T15:03:37;5.15;;;0.40;;
67100;SDS011;54019;61.746;16.106;2022-11-15T15:06:03;0.77;;;0.20;;